createdAt,value
2019-01-05T00:01:14.654Z,32.80
2019-01-05T00:04:10.636Z,28.50
2019-01-05T00:07:00.877Z,29.53
2019-01-05T00:09:49.416Z,31.13
2019-01-05T00:12:50.018Z,27.40
2019-01-05T00:15:49.727Z,30.40
2019-01-05T00:18:39.914Z,32.10
2019-01-05T00:21:45.536Z,28.23
2019-01-05T00:24:34.500Z,29.50
2019-01-05T00:27:23.793Z,28.10
2019-01-05T00:30:16.733Z,25.93
2019-01-05T00:33:08.619Z,29.97
2019-01-05T00:36:40.832Z,27.53
2019-01-05T00:39:36.625Z,22.60
2019-01-05T00:42:27.161Z,25.90
2019-01-05T00:45:17.686Z,22.33
2019-01-05T00:48:09.711Z,26.00
2019-01-05T00:50:59.249Z,25.97
2019-01-05T00:53:49.474Z,25.23
2019-01-05T00:56:46.785Z,23.27
2019-01-05T00:59:38.216Z,29.40
2019-01-05T01:02:43.306Z,21.97
2019-01-05T01:05:32.517Z,27.60
2019-01-05T01:08:21.420Z,23.63
2019-01-05T01:11:10.039Z,26.60
2019-01-05T01:14:07.813Z,24.60
2019-01-05T01:17:12.852Z,27.53
2019-01-05T01:20:14.668Z,29.60
2019-01-05T01:23:06.442Z,25.57
2019-01-05T01:26:13.317Z,22.37
2019-01-05T01:29:02.083Z,26.27
2019-01-05T01:31:58.142Z,23.47
2019-01-05T01:34:57.954Z,24.70
2019-01-05T01:38:25.452Z,23.60
2019-01-05T01:41:14.385Z,22.43
2019-01-05T01:44:03.641Z,23.53
2019-01-05T01:46:52.738Z,22.30
2019-01-05T01:49:47.647Z,23.47
2019-01-05T01:52:51.690Z,21.77
2019-01-05T01:55:54.530Z,22.87
2019-01-05T01:58:46.238Z,23.83
2019-01-05T02:01:39.758Z,21.10
2019-01-05T02:04:30.414Z,22.83
2019-01-05T02:07:26.481Z,25.67
2019-01-05T02:10:17.306Z,22.37
2019-01-05T02:13:18.770Z,22.20
2019-01-05T02:16:26.998Z,24.53
2019-01-05T02:19:48.562Z,25.23
2019-01-05T02:23:28.776Z,23.83
2019-01-05T02:27:15.613Z,22.17
2019-01-05T02:31:04.569Z,22.37
2019-01-05T02:34:33.515Z,25.90
2019-01-05T02:38:04.409Z,21.93
2019-01-05T02:41:46.894Z,17.83
2019-01-05T02:45:28.118Z,21.33
2019-01-05T02:48:53.381Z,19.60
2019-01-05T02:52:42.478Z,17.87
2019-01-05T02:55:55.154Z,22.93
2019-01-05T02:59:24.397Z,20.57
2019-01-05T03:03:01.975Z,22.80
2019-01-05T03:06:36.571Z,17.50
2019-01-05T03:10:06.436Z,20.43
2019-01-05T03:13:24.447Z,20.43
2019-01-05T03:17:18.877Z,20.57
2019-01-05T03:21:06.566Z,22.27
2019-01-05T03:24:30.612Z,21.03
2019-01-05T03:27:58.921Z,21.00
2019-01-05T03:31:52.460Z,21.37
2019-01-05T03:35:28.191Z,18.57
2019-01-05T03:39:28.694Z,17.80
2019-01-05T03:42:49.499Z,13.10
2019-01-05T03:46:12.961Z,13.53
2019-01-05T03:49:53.040Z,14.10
2019-01-05T03:53:21.021Z,15.30
2019-01-05T03:56:54.918Z,14.50
2019-01-05T04:00:32.982Z,18.10
2019-01-05T04:04:01.218Z,17.23
2019-01-05T04:07:36.501Z,15.53
2019-01-05T04:11:09.277Z,18.97
2019-01-05T04:14:32.933Z,13.43
2019-01-05T04:18:04.685Z,15.77
2019-01-05T04:21:45.004Z,15.63
2019-01-05T04:25:27.798Z,12.87
2019-01-05T04:29:00.884Z,13.13
2019-01-05T04:32:52.422Z,12.23
2019-01-05T04:36:26.377Z,14.47
2019-01-05T04:40:10.053Z,11.73
2019-01-05T04:43:52.334Z,10.80
2019-01-05T04:47:13.486Z,10.90
2019-01-05T04:50:47.542Z,10.37
2019-01-05T04:54:14.396Z,12.80
2019-01-05T04:57:29.257Z,13.10
2019-01-05T05:01:07.112Z,15.37
2019-01-05T05:04:30.194Z,11.33
2019-01-05T05:07:53.213Z,11.47
2019-01-05T05:11:38.770Z,10.20
2019-01-05T05:15:39.483Z,8.87
2019-01-05T05:19:22.315Z,10.43
2019-01-05T05:22:43.166Z,11.60
2019-01-05T05:26:18.687Z,10.20
2019-01-05T05:29:48.882Z,11.57
2019-01-05T05:33:31.675Z,9.70
2019-01-05T05:37:12.460Z,11.47
2019-01-05T05:40:40.566Z,11.93
2019-01-05T05:44:14.761Z,9.67
2019-01-05T05:47:49.596Z,10.10
2019-01-05T05:51:23.989Z,10.57
2019-01-05T05:54:57.455Z,11.00
2019-01-05T05:58:49.102Z,12.53
2019-01-05T06:02:38.758Z,10.03
2019-01-05T06:06:32.597Z,11.77
2019-01-05T06:10:03.276Z,13.83
2019-01-05T06:13:35.141Z,9.33
2019-01-05T06:17:01.799Z,12.70
2019-01-05T06:20:35.518Z,10.23
2019-01-05T06:24:28.200Z,8.00
2019-01-05T06:27:57.575Z,9.13
2019-01-05T06:31:28.665Z,10.67
2019-01-05T06:35:02.470Z,8.60
2019-01-05T06:38:34.353Z,8.93
2019-01-05T06:42:05.581Z,10.47
2019-01-05T06:45:41.781Z,12.27
2019-01-05T06:49:12.213Z,15.73
2019-01-05T06:52:37.729Z,10.60
2019-01-05T06:56:03.639Z,13.77
2019-01-05T06:59:41.177Z,11.50
2019-01-05T07:03:22.223Z,14.10
2019-01-05T07:06:47.801Z,25.60
2019-01-05T07:10:41.368Z,13.10
2019-01-05T07:14:13.337Z,13.50
2019-01-05T07:17:54.681Z,16.57
2019-01-05T07:21:40.054Z,13.70
2019-01-05T07:25:12.850Z,13.73
2019-01-05T07:28:57.410Z,14.30
2019-01-05T07:32:20.757Z,14.60
2019-01-05T07:35:58.593Z,13.53
2019-01-05T07:39:45.049Z,14.23
2019-01-05T07:43:21.248Z,13.37
2019-01-05T07:46:44.364Z,14.00
2019-01-05T07:50:09.483Z,14.27
2019-01-05T07:54:03.278Z,12.57
2019-01-05T07:57:56.737Z,14.60
2019-01-05T08:01:27.539Z,25.73
2019-01-05T08:04:55.877Z,22.90
2019-01-05T08:08:16.690Z,22.33
2019-01-05T08:11:49.721Z,20.80
2019-01-05T08:15:28.018Z,22.43
2019-01-05T08:19:06.433Z,26.27
2019-01-05T08:22:30.314Z,22.00
2019-01-05T08:26:10.180Z,22.30
2019-01-05T08:29:39.424Z,22.33
2019-01-05T08:32:59.281Z,25.67
2019-01-05T08:36:34.859Z,28.20
2019-01-05T08:40:10.921Z,27.90
2019-01-05T08:43:35.707Z,24.03
2019-01-05T08:46:59.730Z,27.57
2019-01-05T08:50:20.497Z,29.67
2019-01-05T08:54:18.606Z,25.97
2019-01-05T08:57:41.376Z,25.20
2019-01-05T09:01:22.370Z,18.27
2019-01-05T09:04:50.801Z,13.83
2019-01-05T09:08:10.947Z,14.07
2019-01-05T09:12:01.157Z,13.63
2019-01-05T09:15:45.693Z,19.13
2019-01-05T09:19:42.054Z,15.10
2019-01-05T09:23:36.313Z,15.00
2019-01-05T09:27:12.259Z,10.23
2019-01-05T09:30:53.760Z,20.20
2019-01-05T09:34:31.913Z,17.23
2019-01-05T09:38:05.792Z,17.87
2019-01-05T09:42:01.126Z,19.10
2019-01-05T09:45:39.565Z,17.60
2019-01-05T09:49:27.932Z,15.37
2019-01-05T09:53:01.482Z,20.83
2019-01-05T09:56:37.507Z,17.43
2019-01-05T10:00:10.670Z,34.93
2019-01-05T10:04:01.765Z,12.57
2019-01-05T10:07:47.665Z,15.43
2019-01-05T10:11:21.436Z,18.17
2019-01-05T10:14:41.688Z,18.53
2019-01-05T10:18:09.299Z,17.37
2019-01-05T10:21:40.747Z,18.43
2019-01-05T10:25:07.704Z,18.40
2019-01-05T10:28:37.446Z,17.10
2019-01-05T10:32:19.897Z,18.20
2019-01-05T10:35:44.023Z,13.60
2019-01-05T10:38:58.449Z,13.97
2019-01-05T10:42:35.169Z,14.77
2019-01-05T10:46:15.534Z,35.13
2019-01-05T10:50:13.801Z,12.57
2019-01-05T10:53:59.075Z,11.07
2019-01-05T10:57:30.147Z,46.03
2019-01-05T11:01:04.807Z,16.40
2019-01-05T11:04:28.787Z,15.77
2019-01-05T11:08:09.532Z,14.33
2019-01-05T11:11:47.924Z,10.23
2019-01-05T11:15:24.097Z,8.77
2019-01-05T11:18:40.618Z,21.77
2019-01-05T11:22:09.189Z,24.47
2019-01-05T11:26:04.917Z,9.20
2019-01-05T11:29:46.842Z,7.53
2019-01-05T11:33:21.379Z,10.17
2019-01-05T11:36:53.987Z,7.67
2019-01-05T11:40:41.012Z,47.23
2019-01-05T11:43:58.143Z,45.63
2019-01-05T11:47:53.905Z,10.03
2019-01-05T11:51:26.085Z,7.37
2019-01-05T11:55:00.010Z,14.47
2019-01-05T11:58:34.364Z,5.97
2019-01-05T12:02:01.357Z,7.67
2019-01-05T12:05:37.163Z,14.60
2019-01-05T12:09:14.100Z,6.47
2019-01-05T12:12:35.948Z,10.63
2019-01-05T12:16:31.853Z,18.80
2019-01-05T12:20:00.407Z,6.27
2019-01-05T12:23:45.717Z,4.20
2019-01-05T12:27:41.927Z,2.43
2019-01-05T12:31:23.641Z,8.17
2019-01-05T12:34:48.118Z,52.90
2019-01-05T12:38:15.013Z,79.30
2019-01-05T12:41:41.169Z,6.03
2019-01-05T12:45:32.454Z,12.77
2019-01-05T12:49:14.529Z,54.70
2019-01-05T12:52:53.481Z,7.20
2019-01-05T12:56:13.353Z,4.10
2019-01-05T12:59:43.926Z,39.10
2019-01-05T13:03:19.387Z,24.30
2019-01-05T13:06:51.161Z,50.43
2019-01-05T13:10:33.788Z,18.53
2019-01-05T13:14:10.990Z,15.77
2019-01-05T13:17:24.204Z,2.00
2019-01-05T13:21:10.041Z,1.67
2019-01-05T13:25:11.136Z,29.57
2019-01-05T13:29:01.933Z,10.97
2019-01-05T13:32:46.710Z,5.60
2019-01-05T13:36:12.874Z,10.17
2019-01-05T13:39:54.586Z,3.20
2019-01-05T13:43:25.793Z,3.70
2019-01-05T13:46:47.185Z,7.27
2019-01-05T13:50:27.065Z,2.60
2019-01-05T13:53:59.078Z,3.40
2019-01-05T13:57:00.918Z,4.07
2019-01-05T13:59:59.965Z,1.37
2019-01-05T14:02:59.272Z,2.93
2019-01-05T14:05:58.762Z,2.90
2019-01-05T14:08:47.566Z,6.10
2019-01-05T14:11:44.001Z,9.40
2019-01-05T14:14:46.309Z,6.03
2019-01-05T14:17:32.134Z,6.70
2019-01-05T14:20:25.110Z,5.40
2019-01-05T14:23:18.262Z,4.17
2019-01-05T14:26:07.043Z,3.40
2019-01-05T14:29:03.224Z,2.93
2019-01-05T14:31:59.248Z,2.10
2019-01-05T14:34:58.240Z,6.53
2019-01-05T14:37:49.517Z,3.70
2019-01-05T14:40:39.970Z,3.00
2019-01-05T14:43:28.674Z,3.33
2019-01-05T14:46:31.370Z,1.43
2019-01-05T14:49:27.807Z,2.83
2019-01-05T14:52:32.424Z,2.03
2019-01-05T14:55:29.237Z,2.20
2019-01-05T14:58:26.372Z,4.17
2019-01-05T15:01:21.885Z,3.93
2019-01-05T15:04:15.521Z,2.30
2019-01-05T15:07:16.370Z,2.37
2019-01-05T15:10:18.845Z,3.00
2019-01-05T15:13:24.160Z,1.60
2019-01-05T15:16:42.115Z,2.60
2019-01-05T15:19:58.607Z,3.00
2019-01-05T15:22:55.041Z,5.07
2019-01-05T15:25:45.600Z,5.03
2019-01-05T15:28:39.694Z,6.20
2019-01-05T15:31:48.606Z,9.53
2019-01-05T15:35:04.602Z,22.20
2019-01-05T15:38:12.634Z,5.80
2019-01-05T15:41:10.182Z,4.50
2019-01-05T15:44:00.579Z,5.73
2019-01-05T15:46:57.033Z,3.67
2019-01-05T15:49:49.261Z,3.77
2019-01-05T15:52:50.107Z,2.53
2019-01-05T15:55:57.706Z,2.73
2019-01-05T15:58:54.864Z,5.47
2019-01-05T16:01:50.647Z,3.57
2019-01-05T16:04:42.620Z,2.43
2019-01-05T16:07:58.826Z,4.73
2019-01-05T16:11:15.388Z,3.27
2019-01-05T16:14:31.608Z,4.07
2019-01-05T16:17:38.730Z,4.00
2019-01-05T16:20:43.424Z,2.93
2019-01-05T16:23:47.483Z,2.70
2019-01-05T16:26:40.080Z,3.83
2019-01-05T16:29:34.094Z,3.67
2019-01-05T16:32:41.351Z,2.80
2019-01-05T16:36:04.270Z,3.10
2019-01-05T16:39:01.659Z,4.47
2019-01-05T16:42:23.681Z,3.10
2019-01-05T16:45:28.886Z,5.30
2019-01-05T16:48:30.285Z,3.47
2019-01-05T16:51:43.123Z,3.50
2019-01-05T16:54:41.271Z,5.67
2019-01-05T16:58:04.443Z,5.03
2019-01-05T17:01:09.816Z,3.63
2019-01-05T17:04:24.851Z,2.90
2019-01-05T17:07:30.117Z,4.53
2019-01-05T17:10:41.791Z,1.97
2019-01-05T17:13:35.868Z,5.27
2019-01-05T17:16:28.108Z,1.83
2019-01-05T17:19:36.727Z,3.90
2019-01-05T17:22:43.036Z,4.33
2019-01-05T17:25:45.988Z,6.27
2019-01-05T17:28:41.571Z,3.53
2019-01-05T17:31:35.590Z,4.10
2019-01-05T17:34:24.333Z,5.03
2019-01-05T17:37:23.928Z,10.70
2019-01-05T17:40:19.577Z,4.10
2019-01-05T17:43:15.969Z,4.93
2019-01-05T17:46:09.636Z,4.90
2019-01-05T17:49:09.784Z,3.80
2019-01-05T17:52:05.414Z,5.93
2019-01-05T17:55:14.334Z,5.63
2019-01-05T17:58:06.979Z,3.53
2019-01-05T18:01:07.636Z,4.97
2019-01-05T18:03:59.856Z,3.30
2019-01-05T18:06:51.399Z,5.13
2019-01-05T18:10:07.360Z,11.67
2019-01-05T18:12:45.582Z,10.10
2019-01-05T18:15:49.602Z,12.77
2019-01-05T18:18:51.148Z,8.50
2019-01-05T18:21:51.371Z,6.67
2019-01-05T18:24:47.753Z,7.80
2019-01-05T18:27:46.771Z,6.70
2019-01-05T18:30:59.346Z,6.97
2019-01-05T18:34:00.871Z,6.23
2019-01-05T18:37:12.602Z,4.17
2019-01-05T18:40:23.236Z,5.00
2019-01-05T18:43:18.358Z,4.10
2019-01-05T18:46:22.882Z,3.87
2019-01-05T18:49:18.890Z,4.40
2019-01-05T18:52:25.439Z,3.07
2019-01-05T18:55:14.117Z,3.40
2019-01-05T18:58:13.010Z,4.13
2019-01-05T19:01:12.928Z,2.80
2019-01-05T19:04:10.081Z,2.93
2019-01-05T19:07:00.169Z,5.57
2019-01-05T19:09:54.452Z,5.77
2019-01-05T19:13:06.586Z,4.50
2019-01-05T19:16:01.292Z,2.77
2019-01-05T19:19:01.683Z,3.87
2019-01-05T19:22:02.342Z,4.93
2019-01-05T19:25:02.929Z,3.43
2019-01-05T19:28:05.346Z,3.50
2019-01-05T19:30:55.589Z,3.03
2019-01-05T19:33:54.278Z,3.57
2019-01-05T19:36:48.051Z,4.10
2019-01-05T19:39:49.851Z,2.73
2019-01-05T19:42:41.482Z,3.27
2019-01-05T19:45:40.020Z,3.10
2019-01-05T19:48:35.665Z,3.03
2019-01-05T19:51:58.315Z,3.50
2019-01-05T19:55:09.355Z,3.70
2019-01-05T19:58:10.029Z,3.27
2019-01-05T20:01:02.778Z,3.93
2019-01-05T20:04:01.642Z,5.07
2019-01-05T20:06:58.896Z,5.63
2019-01-05T20:10:01.784Z,6.33
2019-01-05T20:13:04.485Z,5.67
2019-01-05T20:16:03.384Z,3.20
2019-01-05T20:19:10.578Z,3.07
2019-01-05T20:22:13.711Z,4.60
2019-01-05T20:24:58.507Z,3.20
2019-01-05T20:28:14.380Z,2.57
2019-01-05T20:31:21.921Z,2.50
2019-01-05T20:34:14.348Z,4.10
2019-01-05T20:37:15.601Z,2.33
2019-01-05T20:40:17.367Z,9.33
2019-01-05T20:43:10.429Z,5.87
2019-01-05T20:46:00.720Z,4.33
2019-01-05T20:49:02.036Z,4.00
2019-01-05T20:51:53.798Z,4.43
2019-01-05T20:54:53.473Z,4.23
2019-01-05T20:57:54.517Z,4.23
2019-01-05T21:00:50.375Z,4.17
2019-01-05T21:03:49.678Z,3.40
2019-01-05T21:06:56.456Z,3.53
2019-01-05T21:10:06.679Z,3.10
2019-01-05T21:12:59.603Z,5.00
2019-01-05T21:16:12.737Z,6.53
2019-01-05T21:19:04.421Z,3.20
2019-01-05T21:22:10.379Z,3.53
2019-01-05T21:25:20.026Z,2.63
2019-01-05T21:28:33.031Z,2.80
2019-01-05T21:31:19.305Z,2.17
2019-01-05T21:34:25.985Z,2.67
2019-01-05T21:37:36.045Z,2.30
2019-01-05T21:40:33.496Z,2.10
2019-01-05T21:43:29.976Z,1.97
2019-01-05T21:46:24.647Z,1.53
2019-01-05T21:49:42.509Z,1.70
2019-01-05T21:52:46.515Z,4.97
2019-01-05T21:55:50.796Z,2.67
2019-01-05T21:58:53.628Z,2.03
2019-01-05T22:01:50.676Z,2.03
2019-01-05T22:05:09.234Z,1.57
2019-01-05T22:08:07.933Z,2.40
2019-01-05T22:11:00.318Z,1.40
2019-01-05T22:13:58.196Z,1.90
2019-01-05T22:16:51.136Z,2.43
2019-01-05T22:19:52.831Z,2.13
2019-01-05T22:22:52.097Z,2.30
2019-01-05T22:25:45.041Z,2.70
2019-01-05T22:28:39.770Z,1.90
2019-01-05T22:31:35.150Z,1.80
2019-01-05T22:34:28.064Z,2.03
2019-01-05T22:37:29.924Z,2.37
2019-01-05T22:40:24.926Z,1.97
2019-01-05T22:43:19.009Z,2.10
2019-01-05T22:46:11.551Z,1.70
2019-01-05T22:49:15.360Z,2.00
2019-01-05T22:52:05.856Z,2.03
2019-01-05T22:55:01.526Z,1.20
2019-01-05T22:57:59.698Z,1.50
2019-01-05T23:01:00.125Z,1.77
2019-01-05T23:03:49.396Z,1.60
2019-01-05T23:06:56.514Z,2.30
2019-01-05T23:10:05.753Z,1.33
2019-01-05T23:13:12.070Z,1.47
2019-01-05T23:16:15.883Z,1.33
2019-01-05T23:19:28.453Z,1.43
2019-01-05T23:22:38.723Z,1.40
2019-01-05T23:25:36.794Z,1.90
2019-01-05T23:28:32.828Z,1.90
2019-01-05T23:31:27.720Z,1.30
2019-01-05T23:34:14.650Z,1.73
2019-01-05T23:37:27.080Z,1.40
2019-01-05T23:40:39.592Z,1.40
2019-01-05T23:43:45.312Z,1.53
2019-01-05T23:46:48.456Z,1.93
2019-01-05T23:49:47.808Z,1.47
2019-01-05T23:52:53.499Z,1.43
2019-01-05T23:56:09.454Z,1.70
2019-01-05T23:59:02.743Z,1.20
